KBDE/BDE METAR and TAF weather

Enter ICAO airport designator
Station Type Date Time Source
KBDE METAR 2019/08/22 08:53 UTC NOAA

KBDE 220853Z AUTO 00000KT 10SM OVC065 13/11 A3010 RMK AO2 SLP196 T01330106 53003


Station Type Date Time Source
KBDE Decoded METAR 2019/08/22 08:53 UTC NOAA

Station name not available
Aug 22, 2019 - 04:53 AM EDT / 2019.08.22 0853 UTC
Wind: Calm:0
Visibility: 10 mile(s):0
Sky conditions: overcast
Temperature: 55.9 F (13.3 C)
Dew Point: 51.1 F (10.6 C)
Relative Humidity: 83%
Pressure (altimeter): 30.1 in. Hg (1019 hPa)
Pressure tendency: 0.01 inches (0.3 hPa) higher than three hours ago
ob: KBDE 220853Z AUTO 00000KT 10SM OVC065 13/11 A3010 RMK AO2 SLP196 T01330106 53003
cycle: 9

Station Type Date Time Source
KBDE TAF UTC NOAA

Error!

Example: see airport list